Time;durP1;ratioP1;P1;durP2;ratioP2;P2;SDS_P1;SDS_P2;PMS_P1;PMS_P2;Temp;Humidity;BMP_temperature;BMP_pressure;BME280_temperature;BME280_humidity;BME280_pressure;Samples;Min_cycle;Max_cycle;Signal;HPM_P1;HPM_P2
2022/09/26 00:01:06;;;;;;;;;5.00;3.00;;;;;;;;4985566;28;10555;-81
2022/09/26 00:03:33;;;;;;;;;3.00;3.00;;;;;;;;4986047;28;9730;-80
2022/09/26 00:06:01;;;;;;;;;3.00;3.00;;;;;;;;4986912;28;9954;-80
2022/09/26 00:08:29;;;;;;;;;4.50;3.00;;;;;;;;4986020;28;9839;-80
2022/09/26 00:10:59;;;;;;;;;4.00;4.00;;;;;;;;4987049;28;9822;-82
2022/09/26 00:13:27;;;;;;;;;4.00;4.00;;;;;;;;4985689;28;9867;-82
2022/09/26 00:15:55;;;;;;;;;3.00;3.00;;;;;;;;4986705;28;9952;-82
2022/09/26 00:18:23;;;;;;;;;5.75;4.00;;;;;;;;4985583;28;9954;-82
2022/09/26 00:20:51;;;;;;;;;3.50;3.50;;;;;;;;4986409;28;9926;-82
2022/09/26 00:23:19;;;;;;;;;5.75;3.00;;;;;;;;4985244;28;9799;-81
2022/09/26 00:25:46;;;;;;;;;2.50;2.50;;;;;;;;4985262;28;9715;-82
2022/09/26 00:28:16;;;;;;;;;4.00;4.00;;;;;;;;4987164;28;10526;-81
2022/09/26 00:30:44;;;;;;;;;4.25;3.00;;;;;;;;4985217;28;10525;-81
2022/09/26 00:33:12;;;;;;;;;4.00;4.00;;;;;;;;4986790;28;9691;-81
2022/09/26 00:35:40;;;;;;;;;2.75;2.75;;;;;;;;4985337;28;9690;-81
2022/09/26 00:38:07;;;;;;;;;4.00;4.00;;;;;;;;4986754;28;9689;-81
2022/09/26 00:40:34;;;;;;;;;5.00;3.00;;;;;;;;4985457;28;9574;-81
2022/09/26 00:43:02;;;;;;;;;3.00;3.00;;;;;;;;4985716;28;9559;-81
2022/09/26 00:45:31;;;;;;;;;2.00;2.00;;;;;;;;4986244;28;9560;-81
2022/09/26 00:48:00;;;;;;;;;3.75;2.75;;;;;;;;4984472;28;9578;-81
2022/09/26 00:50:30;;;;;;;;;3.75;3.75;;;;;;;;4985421;28;9625;-81
2022/09/26 00:53:07;;;;;;;;;3.75;3.75;;;;;;;;4984286;28;9660;-81
2022/09/26 00:55:38;;;;;;;;;3.50;3.00;;;;;;;;4981732;28;9641;-80
2022/09/26 00:58:11;;;;;;;;;3.00;3.00;;;;;;;;4986606;28;9492;-80
2022/09/26 01:00:40;;;;;;;;;2.75;2.75;;;;;;;;4984989;28;9571;-81
2022/09/26 01:03:08;;;;;;;;;2.75;2.00;;;;;;;;4985849;28;9634;-81
2022/09/26 01:05:37;;;;;;;;;3.00;3.00;;;;;;;;4984499;28;9465;-81
2022/09/26 01:08:05;;;;;;;;;1.00;1.00;;;;;;;;4985784;28;9611;-81
2022/09/26 01:10:34;;;;;;;;;2.75;2.00;;;;;;;;4984694;28;9436;-81
2022/09/26 01:13:02;;;;;;;;;1.75;1.75;;;;;;;;4985762;28;10386;-80
2022/09/26 01:15:29;;;;;;;;;2.50;2.50;;;;;;;;4985844;28;10362;-81
2022/09/26 01:17:58;;;;;;;;;3.00;3.00;;;;;;;;4984334;28;9509;-81
2022/09/26 01:20:29;;;;;;;;;3.25;2.00;;;;;;;;4985660;28;9591;-80
2022/09/26 01:23:27;;;;;;;;;2.00;2.00;;;;;;;;4984518;28;9507;-81
2022/09/26 01:26:29;;;;;;;;;1.33;1.33;;;;;;;;4985150;28;10180;-81
2022/09/26 01:29:28;;;;;;;;;2.75;2.75;;;;;;;;4978388;28;9463;-81
2022/09/26 01:34:57;;;;;;;;;3.50;2.00;;;;;;;;4985109;28;9408;-81
2022/09/26 01:37:32;;;;;;;;;2.00;2.00;;;;;;;;4984734;28;9401;-81
2022/09/26 01:40:08;;;;;;;;;2.00;2.00;;;;;;;;4983236;28;9581;-81
2022/09/26 01:42:43;;;;;;;;;2.25;2.25;;;;;;;;4985570;28;9596;-81
2022/09/26 01:45:16;;;;;;;;;1.50;1.50;;;;;;;;4984337;28;9582;-81
2022/09/26 01:47:47;;;;;;;;;5.50;2.75;;;;;;;;4983125;28;9500;-81
2022/09/26 01:50:21;;;;;;;;;2.00;2.00;;;;;;;;4984173;28;9648;-81
2022/09/26 01:52:54;;;;;;;;;3.00;3.00;;;;;;;;4981269;28;9574;-81
2022/09/26 01:55:24;;;;;;;;;5.00;3.50;;;;;;;;4985148;28;9652;-81
2022/09/26 01:57:55;;;;;;;;;2.75;2.75;;;;;;;;4983889;28;9582;-81
2022/09/26 02:00:22;;;;;;;;;3.50;2.00;;;;;;;;4984871;28;9668;-80
2022/09/26 02:02:51;;;;;;;;;5.00;3.00;;;;;;;;4982724;28;9658;-81
2022/09/26 02:05:24;;;;;;;;;3.00;3.00;;;;;;;;4983286;28;9693;-81
2022/09/26 02:07:56;;;;;;;;;2.00;2.00;;;;;;;;4983883;28;9553;-81
2022/09/26 02:10:27;;;;;;;;;3.00;3.00;;;;;;;;4983813;28;9676;-81
2022/09/26 02:13:03;;;;;;;;;2.75;2.75;;;;;;;;4984726;28;9785;-81
2022/09/26 02:15:32;;;;;;;;;3.75;3.75;;;;;;;;4979394;28;9804;-81
2022/09/26 02:18:07;;;;;;;;;2.00;2.00;;;;;;;;4984442;28;9799;-81
2022/09/26 02:20:38;;;;;;;;;1.25;1.25;;;;;;;;4983210;28;9569;-81
2022/09/26 02:23:06;;;;;;;;;1.25;1.25;;;;;;;;4983017;28;9512;-79
2022/09/26 02:25:34;;;;;;;;;1.75;1.75;;;;;;;;4984691;28;9563;-80
2022/09/26 02:28:02;;;;;;;;;3.25;2.50;;;;;;;;4983368;28;9801;-80
2022/09/26 02:30:29;;;;;;;;;3.00;1.25;;;;;;;;4984435;28;9509;-81
2022/09/26 02:32:57;;;;;;;;;1.00;1.00;;;;;;;;4983080;28;9697;-80
2022/09/26 02:38:19;;;;;;;;;1.00;1.00;;;;;;;;4971858;28;9523;-80
2022/09/26 02:40:51;;;;;;;;;0.00;0.00;;;;;;;;4982813;28;9513;-80
2022/09/26 02:43:38;;;;;;;;;1.00;1.00;;;;;;;;4984641;28;9450;-80
2022/09/26 02:46:15;;;;;;;;;0.75;0.75;;;;;;;;4983310;28;9442;-80
2022/09/26 02:48:58;;;;;;;;;1.50;1.50;;;;;;;;4983470;28;9525;-81
2022/09/26 02:51:48;;;;;;;;;1.00;1.00;;;;;;;;4975136;28;9418;-80
2022/09/26 02:54:23;;;;;;;;;1.50;1.50;;;;;;;;4983106;28;9701;-81
2022/09/26 02:57:07;;;;;;;;;1.00;1.00;;;;;;;;4983854;28;9566;-81
2022/09/26 02:59:41;;;;;;;;;1.00;1.00;;;;;;;;4984192;28;9451;-79
2022/09/26 03:02:14;;;;;;;;;1.75;1.75;;;;;;;;4981580;28;10275;-79
2022/09/26 03:04:46;;;;;;;;;1.67;1.67;;;;;;;;4985314;28;9664;-80
2022/09/26 03:07:24;;;;;;;;;1.50;1.50;;;;;;;;4981569;28;9352;-80
2022/09/26 03:09:52;;;;;;;;;1.00;1.00;;;;;;;;4984220;28;9627;-78
2022/09/26 03:12:20;;;;;;;;;0.00;0.00;;;;;;;;4984049;28;9439;-79
2022/09/26 03:14:48;;;;;;;;;1.00;1.00;;;;;;;;4983426;28;9377;-79
2022/09/26 03:17:18;;;;;;;;;0.33;0.33;;;;;;;;4984489;28;9432;-79
2022/09/26 03:19:47;;;;;;;;;0.33;0.33;;;;;;;;4982400;28;9381;-79
2022/09/26 03:22:16;;;;;;;;;0.00;0.00;;;;;;;;4984066;28;9360;-80
2022/09/26 03:24:44;;;;;;;;;0.33;0.33;;;;;;;;4982748;28;9470;-79
2022/09/26 03:27:13;;;;;;;;;0.00;0.00;;;;;;;;4984164;28;9433;-81
2022/09/26 03:29:41;;;;;;;;;0.00;0.00;;;;;;;;4983322;28;9416;-79
2022/09/26 03:32:08;;;;;;;;;1.00;1.00;;;;;;;;4982709;28;9294;-80
2022/09/26 03:34:38;;;;;;;;;2.00;1.25;;;;;;;;4983830;28;9556;-80
2022/09/26 03:37:06;;;;;;;;;1.00;1.00;;;;;;;;4982313;28;9482;-81
2022/09/26 03:39:34;;;;;;;;;1.00;1.00;;;;;;;;4984248;28;9488;-82
2022/09/26 03:42:02;;;;;;;;;0.50;0.50;;;;;;;;4982761;28;9348;-82
2022/09/26 03:44:30;;;;;;;;;0.00;0.00;;;;;;;;4983718;28;9496;-81
2022/09/26 03:46:58;;;;;;;;;0.00;0.00;;;;;;;;4983169;28;9315;-80
2022/09/26 03:49:25;;;;;;;;;0.25;0.25;;;;;;;;4998567;28;9412;-82
2022/09/26 03:51:53;;;;;;;;;1.00;1.00;;;;;;;;4983587;28;9424;-81
2022/09/26 03:54:20;;;;;;;;;1.00;1.00;;;;;;;;4980628;28;9443;-79
2022/09/26 03:56:48;;;;;;;;;1.00;1.00;;;;;;;;4983355;28;9545;-80
2022/09/26 03:59:16;;;;;;;;;1.00;1.00;;;;;;;;4982428;28;9275;-80
2022/09/26 04:01:43;;;;;;;;;0.33;0.33;;;;;;;;4985921;28;9382;-80
2022/09/26 04:04:14;;;;;;;;;1.00;1.00;;;;;;;;4986527;28;9486;-80
2022/09/26 04:06:42;;;;;;;;;0.00;0.00;;;;;;;;4986894;28;9291;-79
2022/09/26 04:09:10;;;;;;;;;0.00;0.00;;;;;;;;4987549;28;9339;-79
2022/09/26 04:11:38;;;;;;;;;0.00;0.00;;;;;;;;4986120;28;9269;-80
2022/09/26 04:14:06;;;;;;;;;1.67;1.00;;;;;;;;4987321;28;10276;-80
2022/09/26 04:16:34;;;;;;;;;1.75;1.00;;;;;;;;4985738;28;9372;-80
2022/09/26 04:19:02;;;;;;;;;1.00;1.00;;;;;;;;4987239;28;9430;-80
2022/09/26 04:21:29;;;;;;;;;1.00;1.00;;;;;;;;4984971;28;10472;-80
2022/09/26 04:23:57;;;;;;;;;0.67;0.00;;;;;;;;4986250;28;9332;-78
2022/09/26 04:26:24;;;;;;;;;1.00;1.00;;;;;;;;4986564;28;9467;-81
2022/09/26 04:28:53;;;;;;;;;0.00;0.00;;;;;;;;4985869;28;9383;-80
2022/09/26 04:31:22;;;;;;;;;1.50;0.50;;;;;;;;4985431;28;9220;-80
2022/09/26 04:33:49;;;;;;;;;0.00;0.00;;;;;;;;4984925;28;9281;-80
2022/09/26 04:36:17;;;;;;;;;0.67;0.67;;;;;;;;4985235;28;9339;-79
2022/09/26 04:38:44;;;;;;;;;0.00;0.00;;;;;;;;4983611;28;9212;-80
2022/09/26 04:41:12;;;;;;;;;0.00;0.00;;;;;;;;4984214;28;9261;-81
2022/09/26 04:43:40;;;;;;;;;1.00;1.00;;;;;;;;4986648;28;9278;-80
2022/09/26 04:46:09;;;;;;;;;0.33;0.33;;;;;;;;4984106;28;9249;-81
2022/09/26 04:48:39;;;;;;;;;0.33;0.33;;;;;;;;4986101;28;9257;-80
2022/09/26 04:51:07;;;;;;;;;0.00;0.00;;;;;;;;4984998;28;9275;-80
2022/09/26 04:53:34;;;;;;;;;0.67;0.67;;;;;;;;4985623;28;9340;-80
2022/09/26 04:56:02;;;;;;;;;1.00;1.00;;;;;;;;4982877;28;9305;-81
2022/09/26 04:58:30;;;;;;;;;1.00;1.00;;;;;;;;4984755;28;9220;-79
2022/09/26 05:01:02;;;;;;;;;0.00;0.00;;;;;;;;4983329;28;9199;-80
2022/09/26 05:03:29;;;;;;;;;1.00;1.00;;;;;;;;4984430;28;10038;-78
2022/09/26 05:05:58;;;;;;;;;0.00;0.00;;;;;;;;4985425;28;9263;-78
2022/09/26 05:08:27;;;;;;;;;1.00;1.00;;;;;;;;4984602;28;9362;-79
2022/09/26 05:10:55;;;;;;;;;0.00;0.00;;;;;;;;4984792;28;10102;-80
2022/09/26 05:13:22;;;;;;;;;0.00;0.00;;;;;;;;4983138;28;9364;-79
2022/09/26 05:15:54;;;;;;;;;1.00;1.00;;;;;;;;4984588;28;9227;-79
2022/09/26 05:18:22;;;;;;;;;1.33;0.00;;;;;;;;4984589;28;9283;-78
2022/09/26 05:20:50;;;;;;;;;1.33;1.00;;;;;;;;4979712;28;9433;-78
2022/09/26 05:26:19;;;;;;;;;1.00;1.00;;;;;;;;4982589;28;9292;-77
2022/09/26 05:28:48;;;;;;;;;0.67;0.67;;;;;;;;4983524;28;9436;-78
2022/09/26 05:31:15;;;;;;;;;0.00;0.00;;;;;;;;4981660;28;9275;-78
2022/09/26 05:33:43;;;;;;;;;0.00;0.00;;;;;;;;4983730;28;9358;-78
2022/09/26 05:36:10;;;;;;;;;0.33;0.33;;;;;;;;4983637;28;9288;-77
2022/09/26 05:38:39;;;;;;;;;0.00;0.00;;;;;;;;4982572;28;9446;-78
2022/09/26 05:41:05;;;;;;;;;1.00;1.00;;;;;;;;4981970;28;9982;-79
2022/09/26 05:43:33;;;;;;;;;0.00;0.00;;;;;;;;4983350;28;9275;-80
2022/09/26 05:46:02;;;;;;;;;1.00;1.00;;;;;;;;4983510;28;10182;-81
2022/09/26 05:48:31;;;;;;;;;0.67;0.67;;;;;;;;4984641;28;9568;-80
2022/09/26 05:51:02;;;;;;;;;1.67;1.00;;;;;;;;4980987;28;9278;-82
2022/09/26 05:53:30;;;;;;;;;1.00;1.00;;;;;;;;4984705;28;9349;-77
2022/09/26 05:55:58;;;;;;;;;0.33;0.33;;;;;;;;4982690;28;9455;-77
2022/09/26 05:58:31;;;;;;;;;1.00;1.00;;;;;;;;4984389;28;9287;-78
2022/09/26 06:01:02;;;;;;;;;0.33;0.33;;;;;;;;4982934;28;9293;-78
2022/09/26 06:03:33;;;;;;;;;0.33;0.33;;;;;;;;4984096;28;9276;-77
2022/09/26 06:06:05;;;;;;;;;0.00;0.00;;;;;;;;4983815;28;9345;-77
2022/09/26 06:08:32;;;;;;;;;0.67;0.67;;;;;;;;4982668;28;9146;-77
2022/09/26 06:11:02;;;;;;;;;0.33;0.33;;;;;;;;4983676;28;9194;-78
2022/09/26 06:13:29;;;;;;;;;0.00;0.00;;;;;;;;4983005;28;9119;-78
2022/09/26 06:16:02;;;;;;;;;1.00;1.00;;;;;;;;4983196;28;9115;-75
2022/09/26 06:18:29;;;;;;;;;0.00;0.00;;;;;;;;4981855;28;9369;-74
2022/09/26 06:20:56;;;;;;;;;2.00;0.00;;;;;;;;4983675;28;9256;-75
2022/09/26 06:23:24;;;;;;;;;1.67;0.00;;;;;;;;4983827;28;9846;-76
2022/09/26 06:25:51;;;;;;;;;0.00;0.00;;;;;;;;4982760;28;9218;-74
2022/09/26 06:28:20;;;;;;;;;1.00;1.00;;;;;;;;4982433;28;9193;-75
2022/09/26 06:30:49;;;;;;;;;0.67;0.67;;;;;;;;4981834;28;9036;-74
2022/09/26 06:33:16;;;;;;;;;1.00;1.00;;;;;;;;4981610;28;9145;-76
2022/09/26 06:35:43;;;;;;;;;0.00;0.00;;;;;;;;4981975;28;9221;-75
2022/09/26 06:38:11;;;;;;;;;0.00;0.00;;;;;;;;4983874;28;10018;-75
2022/09/26 06:40:38;;;;;;;;;1.00;1.00;;;;;;;;4980773;28;9236;-74
2022/09/26 06:43:05;;;;;;;;;0.67;0.67;;;;;;;;4981651;28;9199;-77
2022/09/26 06:45:34;;;;;;;;;0.00;0.00;;;;;;;;4982981;28;9205;-75
2022/09/26 06:48:02;;;;;;;;;1.00;1.00;;;;;;;;4983193;28;9423;-75
2022/09/26 06:50:29;;;;;;;;;2.00;0.00;;;;;;;;4981200;28;9190;-75
2022/09/26 06:52:56;;;;;;;;;1.00;1.00;;;;;;;;4982102;28;9156;-74
2022/09/26 06:55:24;;;;;;;;;1.67;1.00;;;;;;;;4982316;28;9026;-75
2022/09/26 06:57:52;;;;;;;;;1.00;0.00;;;;;;;;4980755;28;9117;-75
2022/09/26 07:00:20;;;;;;;;;1.00;1.00;;;;;;;;4981497;28;9226;-75
2022/09/26 07:02:53;;;;;;;;;1.00;1.00;;;;;;;;4982474;28;9198;-78
2022/09/26 07:05:20;;;;;;;;;0.00;0.00;;;;;;;;4981163;28;9250;-74
2022/09/26 07:07:48;;;;;;;;;1.33;1.33;;;;;;;;4982629;28;9741;-73
2022/09/26 07:10:18;;;;;;;;;1.00;1.00;;;;;;;;4981167;28;9064;-74
2022/09/26 07:12:46;;;;;;;;;0.00;0.00;;;;;;;;4983397;28;9105;-75
2022/09/26 07:15:15;;;;;;;;;0.00;0.00;;;;;;;;4979690;28;9840;-74
2022/09/26 07:17:43;;;;;;;;;1.00;1.00;;;;;;;;4983820;28;9058;-77
2022/09/26 07:20:13;;;;;;;;;0.00;0.00;;;;;;;;4981910;28;9794;-74
2022/09/26 07:22:41;;;;;;;;;1.00;1.00;;;;;;;;4983786;28;8971;-74
2022/09/26 07:25:09;;;;;;;;;0.67;0.67;;;;;;;;4979590;28;8875;-74
2022/09/26 07:27:37;;;;;;;;;0.00;0.00;;;;;;;;4980351;28;9342;-73
2022/09/26 07:30:06;;;;;;;;;0.75;0.75;;;;;;;;4980898;28;8958;-73
2022/09/26 07:32:35;;;;;;;;;0.50;0.50;;;;;;;;4974923;28;8895;-71
2022/09/26 07:35:03;;;;;;;;;2.00;1.00;;;;;;;;4982727;28;9128;-74
2022/09/26 07:37:32;;;;;;;;;1.00;1.00;;;;;;;;4984813;28;8955;-74
2022/09/26 07:39:59;;;;;;;;;0.00;0.00;;;;;;;;4985108;28;8875;-75
2022/09/26 07:42:27;;;;;;;;;1.00;1.00;;;;;;;;4986416;28;9002;-76
2022/09/26 07:44:54;;;;;;;;;1.00;1.00;;;;;;;;4984681;28;8997;-74
2022/09/26 07:50:15;;;;;;;;;0.75;0.75;;;;;;;;4984544;28;8854;-76
2022/09/26 07:52:47;;;;;;;;;0.00;0.00;;;;;;;;4976091;28;8905;-74
2022/09/26 07:55:17;;;;;;;;;0.75;0.75;;;;;;;;4983780;28;8902;-77
2022/09/26 07:57:48;;;;;;;;;0.00;0.00;;;;;;;;4980061;28;8941;-75
2022/09/26 08:00:20;;;;;;;;;1.33;0.00;;;;;;;;4981938;28;9723;-75
2022/09/26 08:02:47;;;;;;;;;0.00;0.00;;;;;;;;4978703;28;9748;-75
2022/09/26 08:05:18;;;;;;;;;1.00;0.00;;;;;;;;4984054;28;9030;-75
2022/09/26 08:07:48;;;;;;;;;2.75;1.00;;;;;;;;4982836;28;8854;-76
2022/09/26 08:10:18;;;;;;;;;3.75;0.75;;;;;;;;4982878;28;8950;-75
2022/09/26 08:12:45;;;;;;;;;1.00;1.00;;;;;;;;4986436;28;8889;-75
2022/09/26 08:15:13;;;;;;;;;0.00;0.00;;;;;;;;4983258;28;9025;-76
2022/09/26 08:17:40;;;;;;;;;1.25;1.00;;;;;;;;4984244;28;8920;-76
2022/09/26 08:20:08;;;;;;;;;1.00;1.00;;;;;;;;4981787;28;8968;-75
2022/09/26 08:22:35;;;;;;;;;0.75;0.75;;;;;;;;4983501;28;8988;-75
2022/09/26 08:25:05;;;;;;;;;1.00;1.00;;;;;;;;4982337;28;8851;-76
2022/09/26 08:27:33;;;;;;;;;2.00;0.75;;;;;;;;4982970;28;8871;-75
2022/09/26 08:30:03;;;;;;;;;0.00;0.00;;;;;;;;4981145;28;8850;-75
2022/09/26 08:32:31;;;;;;;;;2.25;1.00;;;;;;;;4982599;28;8857;-75
2022/09/26 08:34:58;;;;;;;;;1.50;1.00;;;;;;;;4984075;28;8894;-78
2022/09/26 08:37:28;;;;;;;;;1.00;1.00;;;;;;;;4982248;28;9002;-75
2022/09/26 08:39:55;;;;;;;;;1.00;0.75;;;;;;;;4981067;28;8899;-75
2022/09/26 08:42:35;;;;;;;;;1.00;1.00;;;;;;;;4981998;28;8863;-76
2022/09/26 08:48:21;;;;;;;;;1.25;0.75;;;;;;;;4982811;28;8966;-77
2022/09/26 08:50:50;;;;;;;;;0.50;0.25;;;;;;;;4982234;28;8890;-78
2022/09/26 08:53:20;;;;;;;;;1.00;1.00;;;;;;;;4982034;28;8917;-76
2022/09/26 08:55:49;;;;;;;;;1.00;1.00;;;;;;;;4983280;28;8894;-77
2022/09/26 08:58:20;;;;;;;;;1.00;1.00;;;;;;;;4981704;28;9759;-77
2022/09/26 09:00:51;;;;;;;;;1.00;1.00;;;;;;;;4982515;28;8831;-77
2022/09/26 09:03:25;;;;;;;;;1.00;1.00;;;;;;;;4981981;28;8889;-77
2022/09/26 09:05:54;;;;;;;;;0.00;0.00;;;;;;;;4980327;28;8869;-76
2022/09/26 09:08:24;;;;;;;;;1.00;1.00;;;;;;;;4980590;28;9625;-77
2022/09/26 09:10:58;;;;;;;;;4.00;1.00;;;;;;;;4983290;28;8879;-76
2022/09/26 09:13:37;;;;;;;;;0.75;0.75;;;;;;;;4981529;28;8965;-76
2022/09/26 09:16:18;;;;;;;;;1.75;1.00;;;;;;;;4974339;28;8913;-75
2022/09/26 09:18:53;;;;;;;;;1.00;1.00;;;;;;;;4982570;28;9699;-77
2022/09/26 09:21:32;;;;;;;;;0.75;0.75;;;;;;;;4975430;28;8871;-75
2022/09/26 09:24:17;;;;;;;;;0.00;0.00;;;;;;;;4984683;28;8871;-77
2022/09/26 09:26:53;;;;;;;;;0.25;0.25;;;;;;;;4984071;28;8855;-77
2022/09/26 09:29:40;;;;;;;;;0.00;0.00;;;;;;;;4959237;28;9649;-75
2022/09/26 09:32:11;;;;;;;;;2.00;1.00;;;;;;;;4983809;28;8819;-76
2022/09/26 09:34:41;;;;;;;;;0.25;0.25;;;;;;;;4976867;28;8863;-77
2022/09/26 09:37:14;;;;;;;;;0.50;0.50;;;;;;;;4982045;28;8890;-78
2022/09/26 09:39:45;;;;;;;;;0.75;0.75;;;;;;;;4984229;28;9005;-78
2022/09/26 09:42:18;;;;;;;;;2.00;1.00;;;;;;;;4983774;28;8905;-78
2022/09/26 09:44:51;;;;;;;;;0.75;0.75;;;;;;;;4977014;28;9004;-78
2022/09/26 09:47:19;;;;;;;;;0.00;0.00;;;;;;;;4982298;28;8930;-79
2022/09/26 09:49:48;;;;;;;;;0.50;0.50;;;;;;;;4984482;28;8905;-76
2022/09/26 09:52:40;;;;;;;;;0.75;0.75;;;;;;;;4980756;28;8867;-77
2022/09/26 09:55:18;;;;;;;;;0.00;0.00;;;;;;;;4982882;28;9053;-77
2022/09/26 09:58:10;;;;;;;;;2.75;1.00;;;;;;;;4973200;28;8917;-82
2022/09/26 10:00:42;;;;;;;;;0.75;0.75;;;;;;;;4982985;28;8937;-76
2022/09/26 10:03:19;;;;;;;;;2.00;1.00;;;;;;;;4981413;28;8881;-76
2022/09/26 10:05:49;;;;;;;;;0.75;0.75;;;;;;;;4983051;28;8878;-78
2022/09/26 10:08:18;;;;;;;;;1.00;1.00;;;;;;;;4982565;28;8867;-81
2022/09/26 10:10:58;;;;;;;;;1.75;1.00;;;;;;;;4983431;28;8895;-76
2022/09/26 10:13:31;;;;;;;;;1.00;1.00;;;;;;;;4982482;28;8871;-75
2022/09/26 10:16:02;;;;;;;;;1.00;1.00;;;;;;;;4983692;28;8898;-80
2022/09/26 10:18:30;;;;;;;;;0.00;0.00;;;;;;;;4983409;28;8870;-76
2022/09/26 10:20:59;;;;;;;;;1.00;1.00;;;;;;;;4982323;28;8899;-78
2022/09/26 10:23:32;;;;;;;;;0.00;0.00;;;;;;;;4980534;28;8894;-75
2022/09/26 10:26:02;;;;;;;;;0.75;0.75;;;;;;;;4976663;28;8882;-80
2022/09/26 10:28:34;;;;;;;;;0.75;0.75;;;;;;;;4983835;28;8886;-77
2022/09/26 10:31:25;;;;;;;;;0.00;0.00;;;;;;;;4981883;28;8838;-81
2022/09/26 10:33:58;;;;;;;;;2.00;0.50;;;;;;;;4980455;28;8890;-80
2022/09/26 10:36:32;;;;;;;;;0.00;0.00;;;;;;;;4983595;28;8871;-80
2022/09/26 10:41:47;;;;;;;;;1.00;1.00;;;;;;;;4974879;28;8852;-82
2022/09/26 10:44:35;;;;;;;;;1.00;1.00;;;;;;;;4977292;28;8855;-81
2022/09/26 10:47:07;;;;;;;;;2.00;1.00;;;;;;;;4981501;28;8871;-78
2022/09/26 10:49:39;;;;;;;;;0.50;0.25;;;;;;;;4983839;28;8887;-80
2022/09/26 10:52:13;;;;;;;;;1.25;1.00;;;;;;;;4976526;28;8883;-81
2022/09/26 10:54:44;;;;;;;;;0.50;0.50;;;;;;;;4983783;28;8943;-79
2022/09/26 10:57:20;;;;;;;;;0.00;0.00;;;;;;;;4982555;28;8993;-82
2022/09/26 10:59:48;;;;;;;;;1.00;1.00;;;;;;;;4982258;28;8863;-76
2022/09/26 11:02:21;;;;;;;;;2.25;1.50;;;;;;;;4982062;28;9573;-78
2022/09/26 11:07:41;;;;;;;;;1.00;1.00;;;;;;;;4981030;28;8883;-80
2022/09/26 11:10:12;;;;;;;;;1.00;1.00;;;;;;;;4980484;28;8907;-80
2022/09/26 11:12:56;;;;;;;;;2.67;1.00;;;;;;;;4982138;28;8981;-78
2022/09/26 11:15:24;;;;;;;;;1.00;1.00;;;;;;;;4982619;28;8983;-78
2022/09/26 11:17:54;;;;;;;;;1.00;1.00;;;;;;;;4981698;28;8972;-79
2022/09/26 11:20:35;;;;;;;;;3.00;2.00;;;;;;;;4981807;28;9139;-80
2022/09/26 11:23:07;;;;;;;;;1.00;1.00;;;;;;;;4979760;28;10099;-76
2022/09/26 11:25:42;;;;;;;;;2.00;2.00;;;;;;;;4972100;28;9394;-81
2022/09/26 11:28:14;;;;;;;;;2.00;2.00;;;;;;;;4982756;28;9211;-76
2022/09/26 11:30:46;;;;;;;;;3.00;2.00;;;;;;;;4981085;28;9200;-76
2022/09/26 11:33:17;;;;;;;;;2.00;2.00;;;;;;;;4982542;28;9211;-74
2022/09/26 11:35:57;;;;;;;;;2.00;2.00;;;;;;;;4981056;28;9278;-75
2022/09/26 11:38:38;;;;;;;;;2.33;2.33;;;;;;;;4970049;28;9867;-76
2022/09/26 11:41:37;;;;;;;;;2.67;2.67;;;;;;;;4979569;28;9408;-77
2022/09/26 11:44:33;;;;;;;;;3.00;0.00;;;;;;;;4976304;28;9277;-76
2022/09/26 11:47:14;;;;;;;;;1.00;1.00;;;;;;;;4980753;28;9235;-76
2022/09/26 11:50:10;;;;;;;;;3.00;3.00;;;;;;;;4979206;28;9429;-76
2022/09/26 11:52:58;;;;;;;;;1.67;1.67;;;;;;;;4975586;28;9278;-76
2022/09/26 11:55:31;;;;;;;;;3.50;2.00;;;;;;;;4982074;28;9372;-76
2022/09/26 11:58:04;;;;;;;;;3.00;2.00;;;;;;;;4981778;28;10355;-76
2022/09/26 12:00:40;;;;;;;;;2.00;2.00;;;;;;;;4980185;28;9555;-75
2022/09/26 12:03:42;;;;;;;;;3.00;3.00;;;;;;;;4977343;28;9348;-76
2022/09/26 12:06:20;;;;;;;;;2.50;2.50;;;;;;;;4977143;28;9489;-76
2022/09/26 12:09:00;;;;;;;;;2.00;2.00;;;;;;;;4981262;28;9619;-76
2022/09/26 12:11:32;;;;;;;;;5.75;3.00;;;;;;;;4981434;28;9645;-74
2022/09/26 12:14:08;;;;;;;;;4.00;4.00;;;;;;;;4981660;28;9565;-74
2022/09/26 12:16:42;;;;;;;;;3.00;1.50;;;;;;;;4981281;28;9495;-75
2022/09/26 12:19:18;;;;;;;;;1.67;1.67;;;;;;;;4981920;28;9504;-75
2022/09/26 12:24:50;;;;;;;;;5.25;3.75;;;;;;;;4985256;28;9486;-75
2022/09/26 12:27:24;;;;;;;;;2.00;2.00;;;;;;;;4978991;28;9516;-75
2022/09/26 12:29:57;;;;;;;;;2.67;2.67;;;;;;;;4985792;28;9576;-76
2022/09/26 12:32:49;;;;;;;;;2.75;2.75;;;;;;;;4984610;28;9379;-75
2022/09/26 12:35:35;;;;;;;;;2.00;2.00;;;;;;;;4984001;28;9426;-73
2022/09/26 12:38:27;;;;;;;;;2.50;2.00;;;;;;;;4983134;28;9473;-74
2022/09/26 12:41:13;;;;;;;;;2.33;2.00;;;;;;;;4983095;28;9564;-75
2022/09/26 12:44:06;;;;;;;;;1.00;1.00;;;;;;;;4985325;28;9505;-76
2022/09/26 12:46:52;;;;;;;;;3.00;1.00;;;;;;;;4983577;28;9508;-77
2022/09/26 12:49:31;;;;;;;;;1.00;1.00;;;;;;;;4985070;28;9429;-75
2022/09/26 12:52:06;;;;;;;;;0.67;0.67;;;;;;;;4983740;28;10215;-76
2022/09/26 12:54:40;;;;;;;;;1.00;1.00;;;;;;;;4985072;28;9367;-76
2022/09/26 12:57:17;;;;;;;;;3.33;2.00;;;;;;;;4984895;28;9495;-77
2022/09/26 13:00:09;;;;;;;;;2.33;2.33;;;;;;;;4985701;28;9405;-76
2022/09/26 13:03:10;;;;;;;;;3.00;2.00;;;;;;;;4982955;28;9464;-76
2022/09/26 13:06:15;;;;;;;;;1.00;1.00;;;;;;;;4959608;28;9420;-76
2022/09/26 13:08:52;;;;;;;;;1.00;1.00;;;;;;;;4983388;28;9424;-76
2022/09/26 13:11:24;;;;;;;;;2.00;2.00;;;;;;;;4983455;28;9326;-76
2022/09/26 13:14:30;;;;;;;;;1.00;1.00;;;;;;;;4984425;28;9359;-79
2022/09/26 13:17:08;;;;;;;;;1.00;1.00;;;;;;;;4982283;28;9219;-75
2022/09/26 13:19:39;;;;;;;;;1.00;1.00;;;;;;;;4984063;28;9431;-80
2022/09/26 13:22:19;;;;;;;;;3.00;1.00;;;;;;;;4983017;28;9396;-76
2022/09/26 13:24:51;;;;;;;;;1.00;1.00;;;;;;;;4982319;28;9345;-76
2022/09/26 13:27:25;;;;;;;;;0.00;0.00;;;;;;;;4984818;28;9362;-76
2022/09/26 13:29:59;;;;;;;;;0.00;0.00;;;;;;;;4985052;28;9106;-76
2022/09/26 13:32:29;;;;;;;;;0.33;0.33;;;;;;;;4982831;28;9114;-75
2022/09/26 13:35:02;;;;;;;;;0.00;0.00;;;;;;;;4985001;28;9053;-75
2022/09/26 13:37:38;;;;;;;;;0.00;0.00;;;;;;;;4978732;28;9235;-76
2022/09/26 13:40:17;;;;;;;;;0.00;0.00;;;;;;;;4985976;28;9156;-76
2022/09/26 13:42:47;;;;;;;;;1.00;1.00;;;;;;;;4984940;28;8972;-78
2022/09/26 13:45:24;;;;;;;;;0.00;0.00;;;;;;;;4984353;28;9275;-77
2022/09/26 13:47:56;;;;;;;;;0.33;0.33;;;;;;;;4978213;28;9222;-76
2022/09/26 13:50:31;;;;;;;;;0.00;0.00;;;;;;;;4984131;28;9983;-77
2022/09/26 13:53:06;;;;;;;;;0.00;0.00;;;;;;;;4985941;28;9058;-76
2022/09/26 13:55:35;;;;;;;;;2.00;0.00;;;;;;;;4984345;28;9007;-77
2022/09/26 13:58:07;;;;;;;;;0.00;0.00;;;;;;;;4984315;28;9030;-77
2022/09/26 14:01:03;;;;;;;;;1.00;1.00;;;;;;;;4984348;28;8992;-77
2022/09/26 14:03:42;;;;;;;;;0.00;0.00;;;;;;;;4979840;28;9136;-77
2022/09/26 14:06:36;;;;;;;;;2.00;0.00;;;;;;;;4984816;28;8982;-76
2022/09/26 14:09:24;;;;;;;;;0.00;0.00;;;;;;;;4948752;28;9100;-77
2022/09/26 14:11:54;;;;;;;;;0.67;0.00;;;;;;;;4983606;28;8982;-77
2022/09/26 14:14:27;;;;;;;;;0.67;0.67;;;;;;;;4984669;28;9096;-76
2022/09/26 14:16:57;;;;;;;;;0.00;0.00;;;;;;;;4982949;28;8972;-76
2022/09/26 14:19:35;;;;;;;;;0.00;0.00;;;;;;;;4984660;28;9075;-75
2022/09/26 14:22:04;;;;;;;;;1.00;1.00;;;;;;;;4984076;28;10328;-75
2022/09/26 14:24:37;;;;;;;;;2.00;0.67;;;;;;;;4979112;28;8957;-74
2022/09/26 14:27:25;;;;;;;;;1.00;1.00;;;;;;;;4980642;28;8967;-75
2022/09/26 14:29:58;;;;;;;;;1.00;1.00;;;;;;;;4982649;28;9110;-80
2022/09/26 14:32:31;;;;;;;;;1.25;1.25;;;;;;;;4977387;28;9011;-77
2022/09/26 14:35:00;;;;;;;;;1.00;1.00;;;;;;;;4981578;28;8875;-76
2022/09/26 14:37:34;;;;;;;;;1.00;1.00;;;;;;;;4980936;28;8889;-76
2022/09/26 14:40:11;;;;;;;;;1.00;1.00;;;;;;;;4984588;28;8971;-75
2022/09/26 14:42:46;;;;;;;;;1.00;1.00;;;;;;;;4983857;28;9033;-76
2022/09/26 14:45:22;;;;;;;;;1.00;1.00;;;;;;;;4985030;28;9032;-76
2022/09/26 14:48:07;;;;;;;;;1.75;0.00;;;;;;;;4984031;28;8939;-77
2022/09/26 14:50:43;;;;;;;;;1.00;1.00;;;;;;;;4983349;28;8891;-77
2022/09/26 14:53:19;;;;;;;;;2.00;2.00;;;;;;;;4984541;28;8882;-76
2022/09/26 14:55:58;;;;;;;;;1.75;1.75;;;;;;;;4982984;28;8867;-77
2022/09/26 14:58:32;;;;;;;;;1.00;1.00;;;;;;;;4984211;28;8883;-76
2022/09/26 15:01:03;;;;;;;;;1.75;1.00;;;;;;;;4972215;28;8857;-76
2022/09/26 15:03:33;;;;;;;;;0.25;0.25;;;;;;;;4982832;28;8870;-78
2022/09/26 15:06:02;;;;;;;;;1.00;1.00;;;;;;;;4981801;28;8913;-78
2022/09/26 15:08:31;;;;;;;;;0.25;0.00;;;;;;;;4982266;28;8879;-77
2022/09/26 15:11:00;;;;;;;;;1.50;1.50;;;;;;;;4982546;28;8902;-81
2022/09/26 15:13:34;;;;;;;;;3.25;2.00;;;;;;;;4982030;28;8871;-77
2022/09/26 15:16:14;;;;;;;;;2.00;2.00;;;;;;;;4981754;28;9530;-77
2022/09/26 15:18:46;;;;;;;;;2.00;2.00;;;;;;;;4975538;28;8949;-76
2022/09/26 15:21:22;;;;;;;;;1.50;1.50;;;;;;;;4974946;28;8902;-77
2022/09/26 15:23:50;;;;;;;;;1.75;1.75;;;;;;;;4979958;28;9017;-79
2022/09/26 15:26:20;;;;;;;;;1.00;1.00;;;;;;;;4979110;28;8890;-78
2022/09/26 15:28:48;;;;;;;;;3.00;1.00;;;;;;;;4979701;28;8871;-78
2022/09/26 15:31:22;;;;;;;;;1.00;1.00;;;;;;;;4979440;28;8807;-78
2022/09/26 15:33:59;;;;;;;;;1.00;1.00;;;;;;;;4975693;28;8871;-78
2022/09/26 15:36:29;;;;;;;;;1.00;1.00;;;;;;;;4981380;28;8859;-77
2022/09/26 15:38:57;;;;;;;;;1.00;1.00;;;;;;;;4980291;28;9652;-81
2022/09/26 15:44:18;;;;;;;;;1.00;1.00;;;;;;;;4975713;28;8847;-78
2022/09/26 15:46:48;;;;;;;;;0.00;0.00;;;;;;;;4975887;28;8878;-75
2022/09/26 15:49:20;;;;;;;;;0.00;0.00;;;;;;;;4971930;28;8875;-76
2022/09/26 15:51:52;;;;;;;;;0.50;0.50;;;;;;;;4963072;28;9633;-76
2022/09/26 15:54:25;;;;;;;;;0.00;0.00;;;;;;;;4977460;28;8887;-75